Time;durP1;ratioP1;P1;durP2;ratioP2;P2;SDS_P1;SDS_P2;PMS_P1;PMS_P2;Temp;Humidity;BMP_temperature;BMP_pressure;BME280_temperature;BME280_humidity;BME280_pressure;Samples;Min_cycle;Max_cycle;Signal;HPM_P1;HPM_P2
2023/07/13 00:01:51;;;;;;;21.92;9.02;;;;;;;;;;6305865;22;20432;-67
2023/07/13 00:04:19;;;;;;;25.70;9.10;;;;;;;;;;6305395;22;20015;-67
2023/07/13 00:06:46;;;;;;;24.92;9.82;;;;;;;;;;6305567;22;19995;-67
2023/07/13 00:09:16;;;;;;;19.90;9.38;;;;;;;;;;6306410;22;20074;-67
2023/07/13 00:11:43;;;;;;;18.45;9.25;;;;;;;;;;6306177;22;20430;-68
2023/07/13 00:14:10;;;;;;;17.70;8.25;;;;;;;;;;6305325;22;20035;-67
2023/07/13 00:16:38;;;;;;;18.90;9.43;;;;;;;;;;6306148;22;20068;-66
2023/07/13 00:19:04;;;;;;;22.30;9.40;;;;;;;;;;6305982;22;20075;-67
2023/07/13 00:21:30;;;;;;;20.15;9.43;;;;;;;;;;6304054;22;20072;-68
2023/07/13 00:23:55;;;;;;;22.30;9.50;;;;;;;;;;6305579;22;20003;-67
2023/07/13 00:26:21;;;;;;;23.85;9.82;;;;;;;;;;6306273;22;20370;-67
2023/07/13 00:28:47;;;;;;;23.90;9.30;;;;;;;;;;6303709;22;19995;-67
2023/07/13 00:31:16;;;;;;;23.75;9.07;;;;;;;;;;6304054;22;20034;-67
2023/07/13 00:33:42;;;;;;;17.48;9.32;;;;;;;;;;6303441;22;20005;-68
2023/07/13 00:36:09;;;;;;;23.27;9.10;;;;;;;;;;6278366;22;20440;-67
2023/07/13 00:38:35;;;;;;;24.60;8.90;;;;;;;;;;6303656;22;20420;-67
2023/07/13 00:41:03;;;;;;;23.40;9.32;;;;;;;;;;6278626;22;20060;-67
2023/07/13 00:43:29;;;;;;;21.30;9.40;;;;;;;;;;6278652;22;20010;-67
2023/07/13 00:45:58;;;;;;;14.43;7.75;;;;;;;;;;6278725;22;20007;-67
2023/07/13 00:48:32;;;;;;;18.50;8.13;;;;;;;;;;6279412;22;20003;-67
2023/07/13 00:51:00;;;;;;;16.10;8.25;;;;;;;;;;6305838;22;20018;-67
2023/07/13 00:53:29;;;;;;;16.30;8.57;;;;;;;;;;6277752;22;20013;-67
2023/07/13 00:55:56;;;;;;;23.80;9.43;;;;;;;;;;6305690;22;20007;-67
2023/07/13 00:58:24;;;;;;;17.27;8.50;;;;;;;;;;6253019;22;20318;-66
2023/07/13 01:00:51;;;;;;;14.40;8.43;;;;;;;;;;6304115;22;20050;-68
2023/07/13 01:03:18;;;;;;;14.65;8.15;;;;;;;;;;6305575;22;20030;-68
2023/07/13 01:05:48;;;;;;;16.13;8.50;;;;;;;;;;6305795;22;20017;-68
2023/07/13 01:08:15;;;;;;;16.95;7.88;;;;;;;;;;6278393;22;20385;-68
2023/07/13 01:10:41;;;;;;;13.52;8.30;;;;;;;;;;6278287;22;20011;-68
2023/07/13 01:13:08;;;;;;;14.85;7.90;;;;;;;;;;6277907;22;20023;-68
2023/07/13 01:15:37;;;;;;;17.42;7.50;;;;;;;;;;6305867;22;20356;-68
2023/07/13 01:18:10;;;;;;;12.25;7.72;;;;;;;;;;6304086;22;20011;-67
2023/07/13 01:20:37;;;;;;;15.85;7.60;;;;;;;;;;6304109;22;20018;-68
2023/07/13 01:23:06;;;;;;;16.25;8.00;;;;;;;;;;6277725;22;20011;-66
2023/07/13 01:25:32;;;;;;;14.55;7.93;;;;;;;;;;6278159;22;20361;-68
2023/07/13 01:27:58;;;;;;;19.60;8.70;;;;;;;;;;6278242;22;19999;-68
2023/07/13 01:30:24;;;;;;;15.15;8.30;;;;;;;;;;6304113;22;20015;-66
2023/07/13 01:32:50;;;;;;;20.02;8.45;;;;;;;;;;6303494;22;20001;-66
2023/07/13 01:35:16;;;;;;;11.32;7.75;;;;;;;;;;6305977;22;20008;-67
2023/07/13 01:37:44;;;;;;;15.90;8.10;;;;;;;;;;6277917;22;20082;-66
2023/07/13 01:40:12;;;;;;;12.05;7.50;;;;;;;;;;6305506;22;20011;-67
2023/07/13 01:42:37;;;;;;;16.88;8.02;;;;;;;;;;6304959;22;20383;-67
2023/07/13 01:45:04;;;;;;;15.90;8.27;;;;;;;;;;6304111;22;20023;-67
2023/07/13 01:47:30;;;;;;;22.95;8.65;;;;;;;;;;6305385;22;20010;-67
2023/07/13 01:49:57;;;;;;;16.52;8.35;;;;;;;;;;6305117;22;20441;-68
2023/07/13 01:52:23;;;;;;;20.08;9.10;;;;;;;;;;6280228;22;20429;-67
2023/07/13 01:54:49;;;;;;;14.10;7.78;;;;;;;;;;6307005;22;20010;-67
2023/07/13 01:57:16;;;;;;;13.75;7.40;;;;;;;;;;6307221;22;20074;-67
2023/07/13 01:59:42;;;;;;;17.75;8.38;;;;;;;;;;6305712;22;20034;-67
2023/07/13 02:02:07;;;;;;;21.73;9.88;;;;;;;;;;6279920;22;20014;-67
2023/07/13 02:04:34;;;;;;;16.23;8.55;;;;;;;;;;6305271;22;20017;-68
2023/07/13 02:06:59;;;;;;;15.27;8.15;;;;;;;;;;6279701;22;20018;-66
2023/07/13 02:09:25;;;;;;;14.20;8.13;;;;;;;;;;6307538;22;20018;-67
2023/07/13 02:11:51;;;;;;;16.27;8.15;;;;;;;;;;6279747;22;20057;-68
2023/07/13 02:14:17;;;;;;;16.75;9.23;;;;;;;;;;6305176;22;20011;-68
2023/07/13 02:16:42;;;;;;;18.13;8.48;;;;;;;;;;6307686;22;19999;-68
2023/07/13 02:19:08;;;;;;;23.33;9.20;;;;;;;;;;6305320;22;20437;-67
2023/07/13 02:21:34;;;;;;;21.20;8.15;;;;;;;;;;6306754;22;20022;-68
2023/07/13 02:24:00;;;;;;;23.83;8.95;;;;;;;;;;6306954;22;20004;-67
2023/07/13 02:26:26;;;;;;;21.27;8.73;;;;;;;;;;6279600;22;20015;-67
2023/07/13 02:28:53;;;;;;;14.13;8.00;;;;;;;;;;6307494;22;20056;-68
2023/07/13 02:31:19;;;;;;;19.25;8.75;;;;;;;;;;6279728;22;20013;-66
2023/07/13 02:33:45;;;;;;;20.30;8.80;;;;;;;;;;6305005;22;20022;-68
2023/07/13 02:36:12;;;;;;;19.95;9.13;;;;;;;;;;6279589;22;20437;-68
2023/07/13 02:38:38;;;;;;;15.13;7.88;;;;;;;;;;6307365;22;20014;-67
2023/07/13 02:41:05;;;;;;;13.82;8.15;;;;;;;;;;6279464;22;20011;-67
2023/07/13 02:43:31;;;;;;;14.40;9.07;;;;;;;;;;6306441;22;20110;-67
2023/07/13 02:46:00;;;;;;;18.98;9.40;;;;;;;;;;6279522;22;20018;-68
2023/07/13 02:48:26;;;;;;;15.98;8.80;;;;;;;;;;6306711;22;20009;-68
2023/07/13 02:50:51;;;;;;;18.30;8.75;;;;;;;;;;6279373;22;20086;-68
2023/07/13 02:53:17;;;;;;;21.48;9.23;;;;;;;;;;6304120;22;20037;-67
2023/07/13 02:55:47;;;;;;;25.35;9.30;;;;;;;;;;6305166;22;20348;-67
2023/07/13 02:58:16;;;;;;;20.17;9.35;;;;;;;;;;6304937;22;20015;-66
2023/07/13 03:00:46;;;;;;;13.15;8.65;;;;;;;;;;6278843;22;20003;-67
2023/07/13 03:03:16;;;;;;;18.42;8.65;;;;;;;;;;6304521;22;20038;-67
2023/07/13 03:05:44;;;;;;;20.80;9.35;;;;;;;;;;6304853;22;20018;-66
2023/07/13 03:08:12;;;;;;;16.33;8.27;;;;;;;;;;6306548;22;20069;-67
2023/07/13 03:10:40;;;;;;;16.10;8.32;;;;;;;;;;6304921;22;20015;-67
2023/07/13 03:13:08;;;;;;;16.65;8.43;;;;;;;;;;6278627;22;20007;-68
2023/07/13 03:15:34;;;;;;;20.85;9.50;;;;;;;;;;6306815;22;20456;-67
2023/07/13 03:18:00;;;;;;;16.35;8.20;;;;;;;;;;6304730;22;20030;-67
2023/07/13 03:20:26;;;;;;;15.00;8.77;;;;;;;;;;6279008;22;20556;-66
2023/07/13 03:22:51;;;;;;;23.25;9.05;;;;;;;;;;6303270;22;20022;-67
2023/07/13 03:25:18;;;;;;;14.23;8.93;;;;;;;;;;6304279;22;20007;-66
2023/07/13 03:27:44;;;;;;;19.60;9.57;;;;;;;;;;6305465;22;20009;-68
2023/07/13 03:30:11;;;;;;;18.73;8.82;;;;;;;;;;6305420;22;20030;-68
2023/07/13 03:32:36;;;;;;;18.98;8.52;;;;;;;;;;6277275;22;20196;-68
2023/07/13 03:35:02;;;;;;;21.52;8.80;;;;;;;;;;6304345;22;20094;-68
2023/07/13 03:37:31;;;;;;;16.15;9.15;;;;;;;;;;6278879;22;20425;-68
2023/07/13 03:39:57;;;;;;;20.20;8.93;;;;;;;;;;6304295;22;20023;-68
2023/07/13 03:42:23;;;;;;;21.40;8.30;;;;;;;;;;6278981;22;20007;-68
2023/07/13 03:44:52;;;;;;;24.02;9.00;;;;;;;;;;6305156;22;20441;-68
2023/07/13 03:47:18;;;;;;;15.75;8.43;;;;;;;;;;6278979;22;20007;-68
2023/07/13 03:49:47;;;;;;;17.27;8.05;;;;;;;;;;6305065;22;20513;-66
2023/07/13 03:52:13;;;;;;;14.23;8.63;;;;;;;;;;6278486;22;20003;-67
2023/07/13 03:54:38;;;;;;;26.30;10.18;;;;;;;;;;6279246;22;20019;-68
2023/07/13 03:57:06;;;;;;;21.75;9.38;;;;;;;;;;6304388;22;20031;-68
2023/07/13 03:59:34;;;;;;;23.55;10.35;;;;;;;;;;6304691;22;20310;-68
2023/07/13 04:02:01;;;;;;;25.17;10.27;;;;;;;;;;6278919;22;20081;-67
2023/07/13 04:04:27;;;;;;;21.30;8.90;;;;;;;;;;6304555;22;20085;-67
2023/07/13 04:06:53;;;;;;;18.80;9.05;;;;;;;;;;6304670;22;20007;-68
2023/07/13 04:09:19;;;;;;;26.45;10.18;;;;;;;;;;6304446;22;20084;-68
2023/07/13 04:11:44;;;;;;;17.67;10.40;;;;;;;;;;6278489;22;20083;-68
2023/07/13 04:14:10;;;;;;;22.35;9.50;;;;;;;;;;6303681;22;20368;-66
2023/07/13 04:16:36;;;;;;;20.98;9.15;;;;;;;;;;6305552;22;20082;-67
2023/07/13 04:19:01;;;;;;;25.30;9.57;;;;;;;;;;6305957;22;20018;-67
2023/07/13 04:21:30;;;;;;;22.77;10.73;;;;;;;;;;6306170;22;20018;-68
2023/07/13 04:23:56;;;;;;;23.83;9.30;;;;;;;;;;6279073;22;20078;-67
2023/07/13 04:26:22;;;;;;;19.48;9.45;;;;;;;;;;6306098;22;20010;-67
2023/07/13 04:28:49;;;;;;;20.52;9.43;;;;;;;;;;6306378;22;20001;-67
2023/07/13 04:31:15;;;;;;;31.50;10.23;;;;;;;;;;6306042;22;20006;-68
2023/07/13 04:33:42;;;;;;;21.75;10.18;;;;;;;;;;6306301;22;20014;-67
2023/07/13 04:36:09;;;;;;;26.35;9.65;;;;;;;;;;6306293;22;20010;-67
2023/07/13 04:38:35;;;;;;;18.98;9.65;;;;;;;;;;6306109;22;20345;-67
2023/07/13 04:41:04;;;;;;;13.85;8.63;;;;;;;;;;6305911;22;20035;-68
2023/07/13 04:43:30;;;;;;;25.25;9.77;;;;;;;;;;6305689;22;20106;-68
2023/07/13 04:45:56;;;;;;;17.98;9.23;;;;;;;;;;6305417;22;20014;-67
2023/07/13 04:48:23;;;;;;;16.67;9.18;;;;;;;;;;6305660;22;20018;-67
2023/07/13 04:50:55;;;;;;;20.30;10.75;;;;;;;;;;6306035;22;20318;-68
2023/07/13 04:53:21;;;;;;;29.83;10.40;;;;;;;;;;6305529;22;20091;-67
2023/07/13 04:55:47;;;;;;;18.10;9.25;;;;;;;;;;6305635;22;20084;-67
2023/07/13 04:58:12;;;;;;;26.00;10.13;;;;;;;;;;6305584;22;20011;-67
2023/07/13 05:00:39;;;;;;;18.23;9.38;;;;;;;;;;6305298;22;20010;-67
2023/07/13 05:03:05;;;;;;;18.67;9.23;;;;;;;;;;6305763;22;20031;-66
2023/07/13 05:05:31;;;;;;;21.67;10.07;;;;;;;;;;6306047;22;20030;-67
2023/07/13 05:07:56;;;;;;;28.15;10.27;;;;;;;;;;6305694;22;20060;-67
2023/07/13 05:10:23;;;;;;;22.17;9.80;;;;;;;;;;6305882;22;20074;-67
2023/07/13 05:12:49;;;;;;;36.47;11.43;;;;;;;;;;6305419;22;20033;-68
2023/07/13 05:15:15;;;;;;;25.75;10.40;;;;;;;;;;6305249;22;20027;-67
2023/07/13 05:17:40;;;;;;;22.27;9.90;;;;;;;;;;6304803;22;20007;-67
2023/07/13 05:20:08;;;;;;;21.42;10.00;;;;;;;;;;6304534;22;20196;-67
2023/07/13 05:22:34;;;;;;;21.10;9.45;;;;;;;;;;6305528;22;20371;-67
2023/07/13 05:25:01;;;;;;;23.13;10.00;;;;;;;;;;6306521;22;20003;-67
2023/07/13 05:27:27;;;;;;;20.65;8.68;;;;;;;;;;6307545;22;20014;-67
2023/07/13 05:29:53;;;;;;;21.95;8.70;;;;;;;;;;6307303;22;20329;-67
2023/07/13 05:32:19;;;;;;;19.02;8.55;;;;;;;;;;6307629;22;20061;-68
2023/07/13 05:34:44;;;;;;;15.73;8.07;;;;;;;;;;6307598;22;20007;-67
2023/07/13 05:37:10;;;;;;;22.02;9.18;;;;;;;;;;6306148;22;20034;-67
2023/07/13 05:39:36;;;;;;;19.98;8.45;;;;;;;;;;6307691;22;19999;-68
2023/07/13 05:42:02;;;;;;;17.45;7.95;;;;;;;;;;6307808;22;20011;-68
2023/07/13 05:44:28;;;;;;;19.65;8.48;;;;;;;;;;6307120;22;20125;-68
2023/07/13 05:46:55;;;;;;;20.95;8.30;;;;;;;;;;6307113;22;20035;-66
2023/07/13 05:49:21;;;;;;;15.10;7.53;;;;;;;;;;6307026;22;20086;-68
2023/07/13 05:51:47;;;;;;;17.92;8.50;;;;;;;;;;6307650;22;20042;-67
2023/07/13 05:54:13;;;;;;;18.92;8.65;;;;;;;;;;6279950;22;19999;-68
2023/07/13 05:56:39;;;;;;;18.85;9.15;;;;;;;;;;6307754;22;20011;-66
2023/07/13 05:59:04;;;;;;;23.13;10.35;;;;;;;;;;6306970;22;20019;-67
2023/07/13 06:01:31;;;;;;;20.20;8.13;;;;;;;;;;6307238;22;20007;-66
2023/07/13 06:03:57;;;;;;;18.50;8.68;;;;;;;;;;6307024;22;20195;-65
2023/07/13 06:06:22;;;;;;;25.55;9.27;;;;;;;;;;6307030;22;20015;-66
2023/07/13 06:08:48;;;;;;;23.05;8.75;;;;;;;;;;6306940;22;20023;-66
2023/07/13 06:11:18;;;;;;;22.73;8.13;;;;;;;;;;6306249;22;20007;-66
2023/07/13 06:13:45;;;;;;;18.02;7.95;;;;;;;;;;6306397;22;20050;-65
2023/07/13 06:16:11;;;;;;;18.88;8.82;;;;;;;;;;6306666;22;20333;-66
2023/07/13 06:18:38;;;;;;;16.48;8.68;;;;;;;;;;6306462;22;20015;-66
2023/07/13 06:21:11;;;;;;;17.98;7.95;;;;;;;;;;6306624;22;20010;-66
2023/07/13 06:23:37;;;;;;;16.13;8.07;;;;;;;;;;6306074;22;20030;-66
2023/07/13 06:26:04;;;;;;;16.95;7.72;;;;;;;;;;6306770;22;20009;-67
2023/07/13 06:28:31;;;;;;;20.25;9.88;;;;;;;;;;6306598;22;20470;-67
2023/07/13 06:30:58;;;;;;;14.57;8.52;;;;;;;;;;6306348;22;20009;-68
2023/07/13 06:33:24;;;;;;;26.67;8.38;;;;;;;;;;6306446;22;20042;-68
2023/07/13 06:35:50;;;;;;;22.58;8.32;;;;;;;;;;6305220;22;20071;-68
2023/07/13 06:38:15;;;;;;;16.77;8.13;;;;;;;;;;6306309;22;20078;-67
2023/07/13 06:40:41;;;;;;;18.65;9.07;;;;;;;;;;6306481;22;20018;-68
2023/07/13 06:43:13;;;;;;;16.67;8.18;;;;;;;;;;6304609;22;20349;-67
2023/07/13 06:45:45;;;;;;;19.38;8.43;;;;;;;;;;6304963;22;20011;-67
2023/07/13 06:48:11;;;;;;;17.50;7.88;;;;;;;;;;6304526;22;20003;-67
2023/07/13 06:50:37;;;;;;;14.20;7.57;;;;;;;;;;6302951;22;20006;-65
2023/07/13 06:53:03;;;;;;;15.23;8.70;;;;;;;;;;6304945;22;20011;-66
2023/07/13 06:55:28;;;;;;;16.15;8.48;;;;;;;;;;6305521;22;20004;-67
2023/07/13 06:57:54;;;;;;;15.43;7.50;;;;;;;;;;6303412;22;20045;-68
2023/07/13 07:00:20;;;;;;;19.77;8.77;;;;;;;;;;6304801;22;20076;-67
2023/07/13 07:02:46;;;;;;;18.23;8.55;;;;;;;;;;6305123;22;20374;-67
2023/07/13 07:05:12;;;;;;;19.98;8.63;;;;;;;;;;6304635;22;20003;-66
2023/07/13 07:07:37;;;;;;;15.05;8.38;;;;;;;;;;6303371;22;20022;-66
2023/07/13 07:10:03;;;;;;;15.23;7.80;;;;;;;;;;6304626;22;20402;-66
2023/07/13 07:12:29;;;;;;;16.70;7.50;;;;;;;;;;6304453;22;20007;-67
2023/07/13 07:14:55;;;;;;;13.13;7.32;;;;;;;;;;6305001;22;20010;-67
2023/07/13 07:17:20;;;;;;;15.35;8.43;;;;;;;;;;6306068;22;20065;-67
2023/07/13 07:19:46;;;;;;;16.45;8.48;;;;;;;;;;6303647;22;20003;-66
2023/07/13 07:22:12;;;;;;;12.38;7.60;;;;;;;;;;6305119;22;20081;-66
2023/07/13 07:24:38;;;;;;;15.05;8.60;;;;;;;;;;6277347;22;20441;-66
2023/07/13 07:27:04;;;;;;;18.92;8.18;;;;;;;;;;6304978;22;20021;-69
2023/07/13 07:29:29;;;;;;;19.58;8.38;;;;;;;;;;6304999;22;20321;-65
2023/07/13 07:31:55;;;;;;;15.98;7.70;;;;;;;;;;6304653;22;20014;-65
2023/07/13 07:34:21;;;;;;;19.48;8.55;;;;;;;;;;6304532;22;20010;-66
2023/07/13 07:36:46;;;;;;;15.40;7.50;;;;;;;;;;6304793;22;20453;-66
2023/07/13 07:39:12;;;;;;;18.42;8.93;;;;;;;;;;6305190;22;19999;-66
2023/07/13 07:41:38;;;;;;;16.90;8.35;;;;;;;;;;6304693;22;20008;-66
2023/07/13 07:44:04;;;;;;;13.68;7.90;;;;;;;;;;6303890;22;20371;-67
2023/07/13 07:46:30;;;;;;;16.08;8.30;;;;;;;;;;6304917;22;20074;-66
2023/07/13 07:48:56;;;;;;;15.60;8.27;;;;;;;;;;6304743;22;20388;-65
2023/07/13 07:51:22;;;;;;;14.82;7.95;;;;;;;;;;6303694;22;20329;-65
2023/07/13 07:53:48;;;;;;;14.38;8.02;;;;;;;;;;6302328;22;19999;-66
2023/07/13 07:56:16;;;;;;;10.32;7.32;;;;;;;;;;6304853;22;20018;-66
2023/07/13 07:58:42;;;;;;;15.98;7.97;;;;;;;;;;6303541;22;20006;-66
2023/07/13 08:01:08;;;;;;;11.07;7.25;;;;;;;;;;6304666;22;20437;-66
2023/07/13 08:03:34;;;;;;;17.77;7.55;;;;;;;;;;6304870;22;20045;-67
2023/07/13 08:06:00;;;;;;;12.38;7.45;;;;;;;;;;6305187;22;20015;-66
2023/07/13 08:08:25;;;;;;;13.10;7.28;;;;;;;;;;6304675;22;19999;-67
2023/07/13 08:10:52;;;;;;;10.82;7.97;;;;;;;;;;6303944;22;20123;-68
2023/07/13 08:13:17;;;;;;;13.85;7.90;;;;;;;;;;6304242;22;20018;-68
2023/07/13 08:15:43;;;;;;;13.50;7.38;;;;;;;;;;6304018;22;20007;-68
2023/07/13 08:18:09;;;;;;;16.05;8.20;;;;;;;;;;6305037;22;20006;-68
2023/07/13 08:20:41;;;;;;;14.10;8.05;;;;;;;;;;6304419;22;20344;-69
2023/07/13 08:23:09;;;;;;;12.50;7.03;;;;;;;;;;6304791;22;20003;-67
2023/07/13 08:25:35;;;;;;;14.25;7.20;;;;;;;;;;6305725;22;20216;-67
2023/07/13 08:28:01;;;;;;;11.15;7.50;;;;;;;;;;6305288;22;20006;-66
2023/07/13 08:30:27;;;;;;;10.18;6.28;;;;;;;;;;6277984;22;20459;-68
2023/07/13 08:32:53;;;;;;;11.05;6.70;;;;;;;;;;6305254;22;20011;-66
2023/07/13 08:35:19;;;;;;;9.82;6.95;;;;;;;;;;6305306;22;20498;-67
2023/07/13 08:37:45;;;;;;;12.40;6.80;;;;;;;;;;6305381;22;20008;-67
2023/07/13 08:40:12;;;;;;;13.75;7.05;;;;;;;;;;6305198;22;20444;-68
2023/07/13 08:42:54;;;;;;;12.95;7.32;;;;;;;;;;6305000;22;20018;-67
2023/07/13 08:45:33;;;;;;;12.00;6.32;;;;;;;;;;6305248;22;20011;-67
2023/07/13 08:48:09;;;;;;;12.45;6.68;;;;;;;;;;6304458;22;20006;-67
2023/07/13 08:50:46;;;;;;;9.60;6.53;;;;;;;;;;6305396;22;20044;-67
2023/07/13 08:53:14;;;;;;;10.85;7.00;;;;;;;;;;6305213;22;20007;-68
2023/07/13 08:55:39;;;;;;;10.32;6.50;;;;;;;;;;6305336;22;20002;-69
2023/07/13 08:58:14;;;;;;;9.65;6.25;;;;;;;;;;6305451;22;20113;-68
2023/07/13 09:00:51;;;;;;;10.35;6.32;;;;;;;;;;6305085;22;20007;-67
2023/07/13 09:03:22;;;;;;;10.85;6.50;;;;;;;;;;6251487;22;20034;-67
2023/07/13 09:05:54;;;;;;;12.23;6.95;;;;;;;;;;6305273;22;20011;-67
2023/07/13 09:08:23;;;;;;;10.73;6.85;;;;;;;;;;6305271;22;20336;-69
2023/07/13 09:11:07;;;;;;;11.52;7.20;;;;;;;;;;6305077;22;20482;-68
2023/07/13 09:13:54;;;;;;;15.40;8.40;;;;;;;;;;6304777;22;20007;-67
2023/07/13 09:16:21;;;;;;;13.70;6.60;;;;;;;;;;6305407;22;20067;-68
2023/07/13 09:18:54;;;;;;;15.57;6.93;;;;;;;;;;6276288;22;20494;-67
2023/07/13 09:21:31;;;;;;;11.48;7.20;;;;;;;;;;6304357;22;20022;-68
2023/07/13 09:24:01;;;;;;;12.55;7.35;;;;;;;;;;6304376;22;20406;-67
2023/07/13 09:26:29;;;;;;;12.70;7.20;;;;;;;;;;6301963;22;20361;-66
2023/07/13 09:29:28;;;;;;;18.67;7.15;;;;;;;;;;6302315;22;20014;-66
2023/07/13 09:31:58;;;;;;;13.77;7.10;;;;;;;;;;6328341;22;20007;-67
2023/07/13 09:34:25;;;;;;;14.40;7.00;;;;;;;;;;6304193;22;20014;-67
2023/07/13 09:36:51;;;;;;;12.55;6.47;;;;;;;;;;6303755;22;20031;-68
2023/07/13 09:39:27;;;;;;;9.82;6.32;;;;;;;;;;6304177;22;20082;-67
2023/07/13 09:42:01;;;;;;;12.60;6.38;;;;;;;;;;6304350;22;20023;-67
2023/07/13 09:44:30;;;;;;;12.40;6.68;;;;;;;;;;6303372;22;20011;-66
2023/07/13 09:46:56;;;;;;;9.02;5.60;;;;;;;;;;6303647;22;20017;-66
2023/07/13 09:49:33;;;;;;;13.10;6.20;;;;;;;;;;6304209;22;20034;-66
2023/07/13 09:52:03;;;;;;;11.00;5.65;;;;;;;;;;6303407;22;20411;-67
2023/07/13 09:54:28;;;;;;;16.08;6.32;;;;;;;;;;6304144;22;20045;-66
2023/07/13 09:56:56;;;;;;;11.75;5.38;;;;;;;;;;6304750;22;20022;-67
2023/07/13 09:59:24;;;;;;;9.55;5.80;;;;;;;;;;6303964;22;20333;-66
2023/07/13 10:01:50;;;;;;;10.52;5.47;;;;;;;;;;6304148;22;20012;-67
2023/07/13 10:04:22;;;;;;;10.88;5.60;;;;;;;;;;6303633;22;20441;-67
2023/07/13 10:06:48;;;;;;;8.13;5.25;;;;;;;;;;6302187;22;20334;-68
2023/07/13 10:09:18;;;;;;;12.20;5.20;;;;;;;;;;6303592;22;20018;-67
2023/07/13 10:11:45;;;;;;;12.57;6.30;;;;;;;;;;6304767;22;20055;-66
2023/07/13 10:14:20;;;;;;;10.18;5.25;;;;;;;;;;6304359;22;20072;-67
2023/07/13 10:16:49;;;;;;;10.05;5.40;;;;;;;;;;6305605;22;20003;-67
2023/07/13 10:19:22;;;;;;;8.98;5.57;;;;;;;;;;6305390;22;20377;-66
2023/07/13 10:22:00;;;;;;;10.32;5.95;;;;;;;;;;6306249;22;20109;-68
2023/07/13 10:24:30;;;;;;;8.68;5.57;;;;;;;;;;6305265;22;20023;-67
2023/07/13 10:27:17;;;;;;;11.30;5.53;;;;;;;;;;6304813;22;20013;-67
2023/07/13 10:29:45;;;;;;;12.07;5.55;;;;;;;;;;6305710;22;20330;-67
2023/07/13 10:32:12;;;;;;;8.35;5.32;;;;;;;;;;6305110;22;20003;-67
2023/07/13 10:34:41;;;;;;;6.88;4.82;;;;;;;;;;6303588;22;20090;-67
2023/07/13 10:37:18;;;;;;;8.27;5.28;;;;;;;;;;6305383;22;20056;-67
2023/07/13 10:39:44;;;;;;;10.75;4.80;;;;;;;;;;6305581;22;20457;-66
2023/07/13 10:42:15;;;;;;;8.73;5.75;;;;;;;;;;6303668;22;20084;-66
2023/07/13 10:44:41;;;;;;;10.60;5.50;;;;;;;;;;6305236;22;20451;-67
2023/07/13 10:47:13;;;;;;;7.75;5.30;;;;;;;;;;6305265;22;20094;-68
2023/07/13 10:49:40;;;;;;;;;;;;;;;;;;6306927;22;20037;-68
2023/07/13 10:52:06;;;;;;;8.20;5.90;;;;;;;;;;6306211;22;19902;-67
2023/07/13 10:54:34;;;;;;;8.18;5.22;;;;;;;;;;6305496;22;20007;-67
2023/07/13 10:57:21;;;;;;;11.73;6.10;;;;;;;;;;6305982;22;20003;-66
2023/07/13 11:00:08;;;;;;;9.90;6.00;;;;;;;;;;6306140;22;20397;-67
2023/07/13 11:02:35;;;;;;;9.43;5.60;;;;;;;;;;6303182;22;20007;-66
2023/07/13 11:05:25;;;;;;;8.57;5.20;;;;;;;;;;6305147;22;20060;-66
2023/07/13 11:08:29;;;;;;;10.90;5.32;;;;;;;;;;6303162;22;20007;-67
2023/07/13 11:10:56;;;;;;;6.50;4.90;;;;;;;;;;6242715;22;20011;-66
2023/07/13 11:13:55;;;;;;;11.32;5.43;;;;;;;;;;6304256;22;20429;-67
2023/07/13 11:16:20;;;;;;;8.18;5.20;;;;;;;;;;6306616;22;20470;-67
2023/07/13 11:18:49;;;;;;;9.85;5.50;;;;;;;;;;6305991;22;19999;-67
2023/07/13 11:21:16;;;;;;;11.77;5.38;;;;;;;;;;6304458;22;20094;-67
2023/07/13 11:23:47;;;;;;;12.55;5.85;;;;;;;;;;6304447;22;19999;-67
2023/07/13 11:26:37;;;;;;;8.23;5.13;;;;;;;;;;6306937;22;20003;-67
2023/07/13 11:29:30;;;;;;;11.70;5.65;;;;;;;;;;6306713;22;20007;-66
2023/07/13 11:31:58;;;;;;;10.30;5.10;;;;;;;;;;6305724;22;20030;-66
2023/07/13 11:34:33;;;;;;;7.60;5.80;;;;;;;;;;6305968;22;20037;-67
2023/07/13 11:37:00;;;;;;;11.40;5.57;;;;;;;;;;6306359;22;20015;-67
2023/07/13 11:39:35;;;;;;;13.93;5.38;;;;;;;;;;6306403;22;20029;-68
2023/07/13 11:42:05;;;;;;;9.40;5.28;;;;;;;;;;6306680;22;20014;-68
2023/07/13 11:44:33;;;;;;;8.90;5.53;;;;;;;;;;6305872;22;20011;-67
2023/07/13 11:47:07;;;;;;;6.90;5.03;;;;;;;;;;6306737;22;20045;-67
2023/07/13 11:49:42;;;;;;;8.27;5.45;;;;;;;;;;6306272;22;20007;-66
2023/07/13 11:52:15;;;;;;;7.63;5.35;;;;;;;;;;6306887;22;20080;-68
2023/07/13 11:55:14;;;;;;;6.38;4.85;;;;;;;;;;6279568;22;20078;-67
2023/07/13 11:57:49;;;;;;;8.25;5.25;;;;;;;;;;6306184;22;20073;-67
2023/07/13 12:00:18;;;;;;;8.68;5.30;;;;;;;;;;6305145;22;20386;-68
2023/07/13 12:02:49;;;;;;;9.90;5.03;;;;;;;;;;6305729;22;19999;-67
2023/07/13 12:05:17;;;;;;;13.18;5.40;;;;;;;;;;6304906;22;20014;-66
2023/07/13 12:07:44;;;;;;;8.50;5.18;;;;;;;;;;6303374;22;20079;-67
2023/07/13 12:10:28;;;;;;;10.60;5.28;;;;;;;;;;6306100;22;20003;-66
2023/07/13 12:13:01;;;;;;;11.02;5.78;;;;;;;;;;6305002;22;20345;-66
2023/07/13 12:15:36;;;;;;;12.30;4.88;;;;;;;;;;6306048;22;20018;-66
2023/07/13 12:18:02;;;;;;;7.80;5.18;;;;;;;;;;6305483;22;20473;-67
2023/07/13 12:20:35;;;;;;;8.00;4.60;;;;;;;;;;6306110;22;20023;-68
2023/07/13 12:23:02;;;;;;;6.85;4.65;;;;;;;;;;6305561;22;20097;-67
2023/07/13 12:25:28;;;;;;;8.10;4.60;;;;;;;;;;6305092;22;19999;-68
2023/07/13 12:27:54;;;;;;;8.38;5.28;;;;;;;;;;6305174;22;20082;-68
2023/07/13 12:30:33;;;;;;;8.10;4.90;;;;;;;;;;6305758;22;20038;-67
2023/07/13 12:33:01;;;;;;;8.02;5.43;;;;;;;;;;6305673;22;20011;-67
2023/07/13 12:35:32;;;;;;;7.28;5.63;;;;;;;;;;6305460;22;20086;-67
2023/07/13 12:38:00;;;;;;;6.75;4.88;;;;;;;;;;6278174;22;20003;-67
2023/07/13 12:40:33;;;;;;;7.90;4.80;;;;;;;;;;6305845;22;20007;-68
2023/07/13 12:42:59;;;;;;;5.80;4.28;;;;;;;;;;6305096;22;20014;-68
2023/07/13 12:45:30;;;;;;;8.43;5.10;;;;;;;;;;6305609;22;20003;-67
2023/07/13 12:48:14;;;;;;;11.33;4.80;;;;;;;;;;6305049;22;20055;-67
2023/07/13 12:50:43;;;;;;;6.47;4.40;;;;;;;;;;6304971;22;20597;-67
2023/07/13 12:53:19;;;;;;;7.55;5.10;;;;;;;;;;6305393;22;20023;-68
2023/07/13 12:55:54;;;;;;;5.60;4.50;;;;;;;;;;6278228;22;20030;-67
2023/07/13 12:58:31;;;;;;;7.68;5.03;;;;;;;;;;6305438;22;20023;-67
2023/07/13 13:00:59;;;;;;;7.60;4.70;;;;;;;;;;6305909;22;20011;-68
2023/07/13 13:03:37;;;;;;;8.75;4.85;;;;;;;;;;6304696;22;20003;-67
2023/07/13 13:06:15;;;;;;;6.32;4.18;;;;;;;;;;6305552;22;20034;-67
2023/07/13 13:08:43;;;;;;;6.90;4.63;;;;;;;;;;6305037;22;20333;-67
2023/07/13 13:11:09;;;;;;;7.95;4.32;;;;;;;;;;6305246;22;20009;-68
2023/07/13 13:13:35;;;;;;;10.15;4.80;;;;;;;;;;6303014;22;20011;-66
2023/07/13 13:16:32;;;;;;;7.05;4.40;;;;;;;;;;6305333;22;20107;-66
2023/07/13 13:19:23;;;;;;;8.43;4.50;;;;;;;;;;6305208;22;20007;-67
2023/07/13 13:21:52;;;;;;;8.50;4.95;;;;;;;;;;6305564;22;20015;-67
2023/07/13 13:24:21;;;;;;;6.30;4.57;;;;;;;;;;6304889;22;20003;-67
2023/07/13 13:26:48;;;;;;;8.85;5.05;;;;;;;;;;6304843;22;20011;-67
2023/07/13 13:29:19;;;;;;;9.25;4.40;;;;;;;;;;6305140;22;20048;-67
2023/07/13 13:31:45;;;;;;;6.65;4.35;;;;;;;;;;6304844;22;20003;-66
2023/07/13 13:34:13;;;;;;;8.02;4.85;;;;;;;;;;6305306;22;20071;-67
2023/07/13 13:36:40;;;;;;;7.55;4.13;;;;;;;;;;6305626;22;20092;-67
2023/07/13 13:39:33;;;;;;;6.35;4.28;;;;;;;;;;6305256;22;20006;-67
2023/07/13 13:41:59;;;;;;;8.02;4.22;;;;;;;;;;6304905;22;20011;-68
2023/07/13 13:44:25;;;;;;;7.45;4.53;;;;;;;;;;6277572;22;20006;-67
2023/07/13 13:46:54;;;;;;;7.47;4.75;;;;;;;;;;6307081;22;20441;-68
2023/07/13 13:49:24;;;;;;;9.38;4.63;;;;;;;;;;6307316;22;20009;-68
2023/07/13 13:51:50;;;;;;;9.15;4.85;;;;;;;;;;6306911;22;20030;-67
2023/07/13 13:54:17;;;;;;;6.70;4.63;;;;;;;;;;6306463;22;20001;-66
2023/07/13 13:56:44;;;;;;;7.97;4.53;;;;;;;;;;6307177;22;20056;-68
2023/07/13 13:59:11;;;;;;;7.15;4.60;;;;;;;;;;6306830;22;19995;-67
2023/07/13 14:01:38;;;;;;;5.75;4.25;;;;;;;;;;6307243;22;20049;-66
2023/07/13 14:04:05;;;;;;;6.82;4.35;;;;;;;;;;6304703;22;20044;-69
2023/07/13 14:06:31;;;;;;;9.80;4.47;;;;;;;;;;6306331;22;20022;-67
2023/07/13 14:08:57;;;;;;;7.97;4.50;;;;;;;;;;6306791;22;20021;-68
2023/07/13 14:11:23;;;;;;;7.93;5.20;;;;;;;;;;6306780;22;20007;-67
2023/07/13 14:13:55;;;;;;;9.18;5.00;;;;;;;;;;6306515;22;20062;-68
2023/07/13 14:16:27;;;;;;;10.70;4.78;;;;;;;;;;6306694;22;20007;-66
2023/07/13 14:18:53;;;;;;;;;;;;;;;;;;6307131;22;20594;-65
2023/07/13 14:21:22;;;;;;;8.70;4.80;;;;;;;;;;6306026;22;19989;-66
2023/07/13 14:23:48;;;;;;;6.68;4.60;;;;;;;;;;6306176;22;20521;-67
2023/07/13 14:26:17;;;;;;;7.70;4.53;;;;;;;;;;6305364;22;20007;-68
2023/07/13 14:28:45;;;;;;;5.53;4.30;;;;;;;;;;6305082;22;20031;-67
2023/07/13 14:31:16;;;;;;;9.52;4.70;;;;;;;;;;6305076;22;20056;-67
2023/07/13 14:33:42;;;;;;;9.18;4.93;;;;;;;;;;6303652;22;20087;-66
2023/07/13 14:36:29;;;;;;;8.60;4.40;;;;;;;;;;6304757;22;20006;-66
2023/07/13 14:38:57;;;;;;;5.53;3.83;;;;;;;;;;6304901;22;20015;-66
2023/07/13 14:41:23;;;;;;;6.90;4.00;;;;;;;;;;6306955;22;20010;-66
2023/07/13 14:43:49;;;;;;;9.35;4.30;;;;;;;;;;6306690;22;20076;-68